createdAt,value
2018-05-21T00:00:53.322Z,988.71
2018-05-21T00:01:53.313Z,988.70
2018-05-21T00:02:53.327Z,988.74
2018-05-21T00:03:53.256Z,988.73
2018-05-21T00:04:53.330Z,988.75
2018-05-21T00:05:53.198Z,988.77
2018-05-21T00:06:53.179Z,988.74
2018-05-21T00:07:53.180Z,988.80
2018-05-21T00:08:53.128Z,988.78
2018-05-21T00:09:53.201Z,988.78
2018-05-21T00:10:53.064Z,988.79
2018-05-21T00:11:53.067Z,988.77
2018-05-21T00:12:53.023Z,988.80
2018-05-21T00:13:53.049Z,988.81
2018-05-21T00:14:53.105Z,988.87
2018-05-21T00:15:52.957Z,988.85
2018-05-21T00:16:52.915Z,988.91
2018-05-21T00:17:52.903Z,988.92
2018-05-21T00:18:52.874Z,988.99
2018-05-21T00:19:52.908Z,989.00
2018-05-21T00:20:52.821Z,989.01
2018-05-21T00:21:52.791Z,989.00
2018-05-21T00:22:52.782Z,989.00
2018-05-21T00:23:52.747Z,989.00
2018-05-21T00:24:52.763Z,989.00
2018-05-21T00:25:52.795Z,988.99
2018-05-21T00:26:52.662Z,989.01
2018-05-21T00:27:52.648Z,989.02
2018-05-21T00:28:52.603Z,989.02
2018-05-21T00:29:52.579Z,989.05
2018-05-21T00:30:52.649Z,989.04
2018-05-21T00:31:52.535Z,989.04
2018-05-21T00:32:52.499Z,989.08
2018-05-21T00:33:52.484Z,989.09
2018-05-21T00:34:52.457Z,989.13
2018-05-21T00:35:52.445Z,989.14
2018-05-21T00:36:52.507Z,989.19
2018-05-21T00:37:52.394Z,989.23
2018-05-21T00:38:52.349Z,989.25
2018-05-21T00:39:52.319Z,989.25
2018-05-21T00:40:52.302Z,989.30
2018-05-21T00:41:52.259Z,989.28
2018-05-21T00:42:52.406Z,989.33
2018-05-21T00:43:52.283Z,989.35
2018-05-21T00:44:52.182Z,989.33
2018-05-21T00:45:52.179Z,989.35
2018-05-21T00:46:52.138Z,989.35
2018-05-21T00:47:52.217Z,989.34
2018-05-21T00:48:52.103Z,989.30
2018-05-21T00:49:52.054Z,989.30
2018-05-21T00:50:52.059Z,989.32
2018-05-21T00:51:52.024Z,989.32
2018-05-21T00:52:52.044Z,989.35
2018-05-21T00:53:51.971Z,989.33
2018-05-21T00:54:51.945Z,989.39
2018-05-21T00:55:51.903Z,989.39
2018-05-21T00:56:51.888Z,989.40
2018-05-21T00:57:51.894Z,989.42
2018-05-21T00:58:51.930Z,989.41
2018-05-21T00:59:51.843Z,989.41
2018-05-21T01:00:51.772Z,989.43
2018-05-21T01:01:51.744Z,989.42
2018-05-21T01:02:51.758Z,989.41
2018-05-21T01:03:51.771Z,989.42
2018-05-21T01:04:51.791Z,989.39
2018-05-21T01:05:51.809Z,989.39
2018-05-21T01:06:51.639Z,989.40
2018-05-21T01:07:51.611Z,989.40
2018-05-21T01:08:51.611Z,989.42
2018-05-21T01:09:51.663Z,989.45
2018-05-21T01:10:51.553Z,989.44
2018-05-21T01:11:51.504Z,989.47
2018-05-21T01:12:51.493Z,989.52
2018-05-21T01:13:51.489Z,989.52
2018-05-21T01:14:51.441Z,989.57
2018-05-21T01:15:51.514Z,989.58
2018-05-21T01:16:51.371Z,989.58
2018-05-21T01:17:51.432Z,989.59
2018-05-21T01:18:51.316Z,989.65
2018-05-21T01:19:51.305Z,989.67
2018-05-21T01:20:51.284Z,989.72
2018-05-21T01:21:51.806Z,989.76
2018-05-21T01:22:51.251Z,989.76
2018-05-21T01:23:51.201Z,989.78
2018-05-21T01:24:51.177Z,989.76
2018-05-21T01:25:51.240Z,989.78
2018-05-21T01:26:51.115Z,989.81
2018-05-21T01:27:51.160Z,989.80
2018-05-21T01:28:51.072Z,989.83
2018-05-21T01:29:51.033Z,989.80
2018-05-21T01:30:51.037Z,989.81
2018-05-21T01:31:51.089Z,989.84
2018-05-21T01:32:50.945Z,989.83
2018-05-21T01:33:50.945Z,989.88
2018-05-21T01:34:50.978Z,989.89
2018-05-21T01:35:50.877Z,989.88
2018-05-21T01:36:50.869Z,989.94
2018-05-21T01:37:50.868Z,989.93
2018-05-21T01:38:50.815Z,989.90
2018-05-21T01:39:50.789Z,989.89
2018-05-21T01:40:50.749Z,989.89
2018-05-21T01:41:50.721Z,989.90
2018-05-21T01:42:50.743Z,989.89
2018-05-21T01:43:50.649Z,989.89
2018-05-21T01:44:50.670Z,989.88
2018-05-21T01:45:50.637Z,989.88
2018-05-21T01:46:50.592Z,989.93
2018-05-21T01:47:50.562Z,989.94
2018-05-21T01:48:50.534Z,989.91
2018-05-21T01:49:50.502Z,989.95
2018-05-21T01:50:50.478Z,989.93
2018-05-21T01:51:50.514Z,989.97
2018-05-21T01:52:50.573Z,990.00
2018-05-21T01:53:50.392Z,989.97
2018-05-21T01:54:50.398Z,990.02
2018-05-21T01:55:50.362Z,990.00
2018-05-21T01:56:50.327Z,990.00
2018-05-21T01:57:50.288Z,990.03
2018-05-21T01:58:50.331Z,990.01
2018-05-21T01:59:50.344Z,990.03
2018-05-21T02:00:50.236Z,990.00
2018-05-21T02:01:50.198Z,990.05
2018-05-21T02:02:50.172Z,990.02
2018-05-21T02:03:50.195Z,990.04
2018-05-21T02:04:50.126Z,990.07
2018-05-21T02:05:50.097Z,990.10
2018-05-21T02:06:50.072Z,990.10
2018-05-21T02:07:50.037Z,990.13
2018-05-21T02:08:50.102Z,990.15
2018-05-21T02:09:50.042Z,990.15
2018-05-21T02:10:50.193Z,990.19
2018-05-21T02:11:49.940Z,990.19
2018-05-21T02:12:49.916Z,990.21
2018-05-21T02:13:49.907Z,990.25
2018-05-21T02:14:49.881Z,990.27
2018-05-21T02:15:49.838Z,990.28
2018-05-21T02:16:49.820Z,990.29
2018-05-21T02:17:49.785Z,990.26
2018-05-21T02:18:49.766Z,990.27
2018-05-21T02:19:49.770Z,990.27
2018-05-21T02:20:49.670Z,990.32
2018-05-21T02:21:49.647Z,990.29
2018-05-21T02:22:49.638Z,990.29
2018-05-21T02:23:49.732Z,990.31
2018-05-21T02:24:49.706Z,990.27
2018-05-21T02:25:49.566Z,990.27
2018-05-21T02:26:49.549Z,990.28
2018-05-21T02:27:49.505Z,990.32
2018-05-21T02:28:49.520Z,990.32
2018-05-21T02:29:49.503Z,990.30
2018-05-21T02:30:49.477Z,990.28
2018-05-21T02:31:49.391Z,990.25
2018-05-21T02:32:49.419Z,990.29
2018-05-21T02:33:49.400Z,990.29
2018-05-21T02:34:49.317Z,990.26
2018-05-21T02:35:49.332Z,990.29
2018-05-21T02:36:49.297Z,990.27
2018-05-21T02:37:49.259Z,990.25
2018-05-21T02:38:49.223Z,990.27
2018-05-21T02:39:49.178Z,990.27
2018-05-21T02:40:49.284Z,990.26
2018-05-21T02:41:49.176Z,990.25
2018-05-21T02:42:49.483Z,990.28
2018-05-21T02:43:49.074Z,990.27
2018-05-21T02:44:49.065Z,990.29
2018-05-21T02:45:49.217Z,990.29
2018-05-21T02:46:48.991Z,990.29
2018-05-21T02:47:49.006Z,990.31
2018-05-21T02:48:48.957Z,990.24
2018-05-21T02:49:49.185Z,990.25
2018-05-21T02:50:49.035Z,990.26
2018-05-21T02:51:48.896Z,990.26
2018-05-21T02:52:48.856Z,990.24
2018-05-21T02:53:48.843Z,990.23
2018-05-21T02:54:48.788Z,990.27
2018-05-21T02:55:48.868Z,990.24
2018-05-21T02:56:48.746Z,990.26
2018-05-21T02:57:48.838Z,990.32
2018-05-21T02:58:48.698Z,990.33
2018-05-21T02:59:48.678Z,990.37
2018-05-21T03:00:48.737Z,990.38
2018-05-21T03:01:48.630Z,990.37
2018-05-21T03:02:48.615Z,990.37
2018-05-21T03:03:48.580Z,990.35
2018-05-21T03:04:48.615Z,990.38
2018-05-21T03:05:48.934Z,990.40
2018-05-21T03:06:48.498Z,990.41
2018-05-21T03:07:48.459Z,990.39
2018-05-21T03:08:48.425Z,990.41
2018-05-21T03:09:48.440Z,990.39
2018-05-21T03:10:48.484Z,990.38
2018-05-21T03:11:48.510Z,990.39
2018-05-21T03:12:48.341Z,990.37
2018-05-21T03:13:48.314Z,990.40
2018-05-21T03:14:48.301Z,990.41
2018-05-21T03:15:48.250Z,990.38
2018-05-21T03:16:48.221Z,990.36
2018-05-21T03:17:48.352Z,990.36
2018-05-21T03:18:48.296Z,990.38
2018-05-21T03:19:48.193Z,990.39
2018-05-21T03:20:48.253Z,990.38
2018-05-21T03:21:48.175Z,990.42
2018-05-21T03:22:48.275Z,990.38
2018-05-21T03:23:48.053Z,990.38
2018-05-21T03:24:48.010Z,990.38
2018-05-21T03:25:48.343Z,990.40
2018-05-21T03:26:47.949Z,990.39
2018-05-21T03:27:48.036Z,990.38
2018-05-21T03:28:47.934Z,990.37
2018-05-21T03:29:47.873Z,990.37
2018-05-21T03:30:47.947Z,990.34
2018-05-21T03:31:47.936Z,990.32
2018-05-21T03:32:47.952Z,990.31
2018-05-21T03:33:47.884Z,990.26
2018-05-21T03:34:47.854Z,990.27
2018-05-21T03:35:47.906Z,990.24
2018-05-21T03:36:47.692Z,990.23
2018-05-21T03:37:47.762Z,990.23
2018-05-21T03:38:47.646Z,990.22
2018-05-21T03:39:47.614Z,990.22
2018-05-21T03:40:47.599Z,990.24
2018-05-21T03:41:47.540Z,990.27
2018-05-21T03:42:47.584Z,990.27
2018-05-21T03:43:47.497Z,990.28
2018-05-21T03:44:47.479Z,990.29
2018-05-21T03:45:47.485Z,990.28
2018-05-21T03:46:47.424Z,990.29
2018-05-21T03:47:47.500Z,990.29
2018-05-21T03:48:47.478Z,990.28
2018-05-21T03:49:47.349Z,990.29
2018-05-21T03:50:47.319Z,990.27
2018-05-21T03:51:47.278Z,990.30
2018-05-21T03:52:47.285Z,990.32
2018-05-21T03:53:47.236Z,990.38
2018-05-21T03:54:47.199Z,990.38
2018-05-21T03:55:47.189Z,990.39
2018-05-21T03:56:47.160Z,990.43
2018-05-21T03:57:47.170Z,990.43
2018-05-21T03:58:47.112Z,990.44
2018-05-21T03:59:47.170Z,990.45
2018-05-21T04:00:47.062Z,990.46
2018-05-21T04:01:47.012Z,990.48
2018-05-21T04:02:46.994Z,990.52
2018-05-21T04:03:47.001Z,990.53
2018-05-21T04:04:47.061Z,990.57
2018-05-21T04:05:46.918Z,990.60
2018-05-21T04:06:46.915Z,990.60
2018-05-21T04:07:46.869Z,990.60
2018-05-21T04:08:46.839Z,990.61
2018-05-21T04:09:46.882Z,990.63
2018-05-21T04:10:46.773Z,990.65
2018-05-21T04:11:46.791Z,990.65
2018-05-21T04:12:46.745Z,990.62
2018-05-21T04:13:46.715Z,990.66
2018-05-21T04:14:46.794Z,990.64
2018-05-21T04:15:46.645Z,990.58
2018-05-21T04:16:46.656Z,990.60
2018-05-21T04:17:46.618Z,990.61
2018-05-21T04:18:46.656Z,990.60
2018-05-21T04:19:46.662Z,990.59
2018-05-21T04:20:46.522Z,990.54
2018-05-21T04:21:46.490Z,990.54
2018-05-21T04:22:46.496Z,990.53
2018-05-21T04:23:46.456Z,990.52
2018-05-21T04:24:46.434Z,990.50
2018-05-21T04:25:46.496Z,990.52
2018-05-21T04:26:46.387Z,990.52
2018-05-21T04:27:46.343Z,990.53
2018-05-21T04:28:46.319Z,990.55
2018-05-21T04:29:46.291Z,990.55
2018-05-21T04:30:46.287Z,990.58
2018-05-21T04:31:46.339Z,990.56
2018-05-21T04:32:46.224Z,990.56
2018-05-21T04:33:46.196Z,990.56
2018-05-21T04:34:46.156Z,990.54
2018-05-21T04:35:46.149Z,990.53
2018-05-21T04:36:46.206Z,990.50
2018-05-21T04:37:46.087Z,990.51
2018-05-21T04:38:46.059Z,990.49
2018-05-21T04:39:46.013Z,990.53
2018-05-21T04:40:45.994Z,990.54
2018-05-21T04:41:46.018Z,990.55
2018-05-21T04:42:45.935Z,990.53
2018-05-21T04:43:45.921Z,990.55
2018-05-21T04:44:45.900Z,990.50
2018-05-21T04:45:45.869Z,990.52
2018-05-21T04:46:45.933Z,990.49
2018-05-21T04:47:45.792Z,990.48
2018-05-21T04:48:45.788Z,990.50
2018-05-21T04:49:45.758Z,990.47
2018-05-21T04:50:45.726Z,990.45
2018-05-21T04:51:45.791Z,990.46
2018-05-21T04:52:45.678Z,990.50
2018-05-21T04:53:45.661Z,990.47
2018-05-21T04:54:45.633Z,990.45
2018-05-21T04:55:45.622Z,990.48
2018-05-21T04:56:45.704Z,990.42
2018-05-21T04:57:45.541Z,990.43
2018-05-21T04:58:45.524Z,990.40
2018-05-21T04:59:45.493Z,990.39
2018-05-21T05:00:45.461Z,990.37
2018-05-21T05:01:45.426Z,990.38
2018-05-21T05:02:45.406Z,990.37
2018-05-21T05:03:45.394Z,990.40
2018-05-21T05:04:45.347Z,990.38
2018-05-21T05:05:45.334Z,990.39
2018-05-21T05:06:45.301Z,990.38
2018-05-21T05:07:45.392Z,990.34
2018-05-21T05:08:45.251Z,990.37
2018-05-21T05:09:45.222Z,990.38
2018-05-21T05:10:45.191Z,990.36
2018-05-21T05:11:45.193Z,990.33
2018-05-21T05:12:45.227Z,990.33
2018-05-21T05:13:45.108Z,990.30
2018-05-21T05:14:45.088Z,990.31
2018-05-21T05:15:45.068Z,990.28
2018-05-21T05:16:45.030Z,990.28
2018-05-21T05:17:45.098Z,990.24
2018-05-21T05:18:44.968Z,990.25
2018-05-21T05:19:44.969Z,990.22
2018-05-21T05:20:44.938Z,990.21
2018-05-21T05:21:44.905Z,990.16
2018-05-21T05:22:44.937Z,990.20
2018-05-21T05:23:44.868Z,990.17
2018-05-21T05:24:44.869Z,990.16
2018-05-21T05:25:44.807Z,990.15
2018-05-21T05:26:44.843Z,990.13
2018-05-21T05:27:44.846Z,990.14
2018-05-21T05:28:44.719Z,990.15
2018-05-21T05:29:44.698Z,990.18
2018-05-21T05:30:44.668Z,990.15
2018-05-21T05:31:44.644Z,990.12
2018-05-21T05:32:44.711Z,990.11
2018-05-21T05:33:44.597Z,990.08
2018-05-21T05:34:44.581Z,990.04
2018-05-21T05:35:44.568Z,989.98
2018-05-21T05:36:44.509Z,989.96
2018-05-21T05:37:44.483Z,989.93
2018-05-21T05:38:44.559Z,989.89
2018-05-21T05:39:44.432Z,989.85
2018-05-21T05:40:44.413Z,989.84
2018-05-21T05:41:44.362Z,989.82
2018-05-21T05:42:44.372Z,989.79
2018-05-21T05:43:44.321Z,989.77
2018-05-21T05:44:44.385Z,989.77
2018-05-21T05:45:44.275Z,989.75
2018-05-21T05:46:44.312Z,989.76
2018-05-21T05:47:44.225Z,989.74
2018-05-21T05:48:44.231Z,989.71
2018-05-21T05:49:44.307Z,989.70
2018-05-21T05:50:44.120Z,989.70
2018-05-21T05:51:44.143Z,989.67
2018-05-21T05:52:44.086Z,989.66
2018-05-21T05:53:44.053Z,989.62
2018-05-21T05:54:44.134Z,989.62
2018-05-21T05:55:44.007Z,989.60
2018-05-21T05:56:43.975Z,989.59
2018-05-21T05:57:43.992Z,989.57
2018-05-21T05:58:43.954Z,989.53
2018-05-21T05:59:44.024Z,989.55
2018-05-21T06:00:43.858Z,989.55
2018-05-21T06:01:43.843Z,989.51
2018-05-21T06:02:43.856Z,989.52
2018-05-21T06:03:43.779Z,989.49
2018-05-21T06:04:43.889Z,989.48
2018-05-21T06:05:43.724Z,989.47
2018-05-21T06:06:43.699Z,989.41
2018-05-21T06:07:43.680Z,989.41
2018-05-21T06:08:43.663Z,989.43
2018-05-21T06:09:43.615Z,989.43
2018-05-21T06:10:43.738Z,989.40
2018-05-21T06:11:43.562Z,989.37
2018-05-21T06:12:43.541Z,989.37
2018-05-21T06:13:43.508Z,989.32
2018-05-21T06:14:43.523Z,989.32
2018-05-21T06:15:43.461Z,989.30
2018-05-21T06:16:43.459Z,989.31
2018-05-21T06:17:43.475Z,989.27
2018-05-21T06:18:43.383Z,989.25
2018-05-21T06:19:43.353Z,989.21
2018-05-21T06:20:43.349Z,989.20
2018-05-21T06:21:43.387Z,989.19
2018-05-21T06:22:43.292Z,989.18
2018-05-21T06:23:43.236Z,989.18
2018-05-21T06:24:43.224Z,989.15
2018-05-21T06:25:43.197Z,989.12
2018-05-21T06:26:43.258Z,989.12
2018-05-21T06:27:43.128Z,989.11
2018-05-21T06:28:43.116Z,989.08
2018-05-21T06:29:43.107Z,989.05
2018-05-21T06:30:43.067Z,989.03
2018-05-21T06:31:43.189Z,989.05
2018-05-21T06:32:43.028Z,988.98
2018-05-21T06:33:42.976Z,988.98
2018-05-21T06:34:42.959Z,988.97
2018-05-21T06:35:42.942Z,988.94
2018-05-21T06:36:42.996Z,988.94
2018-05-21T06:37:42.890Z,988.92
2018-05-21T06:38:42.856Z,988.90
2018-05-21T06:39:42.825Z,988.85
2018-05-21T06:40:42.798Z,988.86
2018-05-21T06:41:42.914Z,988.85
2018-05-21T06:42:42.749Z,988.82
2018-05-21T06:43:42.703Z,988.83
2018-05-21T06:44:42.693Z,988.80
2018-05-21T06:45:42.675Z,988.75
2018-05-21T06:46:42.623Z,988.74
2018-05-21T06:47:42.827Z,988.72
2018-05-21T06:48:42.588Z,988.71
2018-05-21T06:49:42.559Z,988.65
2018-05-21T06:50:42.524Z,988.68
2018-05-21T06:51:42.492Z,988.63
2018-05-21T06:52:42.482Z,988.64
2018-05-21T06:53:42.500Z,988.67
2018-05-21T06:54:42.441Z,988.64
2018-05-21T06:55:42.411Z,988.63
2018-05-21T06:56:42.355Z,988.63
2018-05-21T06:57:42.350Z,988.66
2018-05-21T06:58:42.437Z,988.67
2018-05-21T06:59:42.288Z,988.66
2018-05-21T07:00:42.263Z,988.65
2018-05-21T07:01:42.232Z,988.61
2018-05-21T07:02:42.229Z,988.61
2018-05-21T07:03:42.276Z,988.57
2018-05-21T07:04:42.178Z,988.54
2018-05-21T07:05:42.117Z,988.53
2018-05-21T07:06:42.105Z,988.51
2018-05-21T07:07:42.073Z,988.51
2018-05-21T07:08:42.136Z,988.47
2018-05-21T07:09:42.013Z,988.48
2018-05-21T07:10:42.032Z,988.43
2018-05-21T07:11:41.959Z,988.44
2018-05-21T07:12:41.954Z,988.38
2018-05-21T07:13:42.031Z,988.40
2018-05-21T07:14:41.879Z,988.40
2018-05-21T07:15:41.854Z,988.37
2018-05-21T07:16:41.828Z,988.39
2018-05-21T07:17:41.848Z,988.37
2018-05-21T07:18:41.786Z,988.40
2018-05-21T07:19:41.865Z,988.33
2018-05-21T07:20:41.720Z,988.31
2018-05-21T07:21:41.696Z,988.33
2018-05-21T07:22:41.676Z,988.29
2018-05-21T07:23:41.647Z,988.31
2018-05-21T07:24:41.775Z,988.29
2018-05-21T07:25:41.695Z,988.25
2018-05-21T07:26:41.570Z,988.26
2018-05-21T07:27:41.541Z,988.20
2018-05-21T07:28:41.518Z,988.18
2018-05-21T07:29:41.489Z,988.15
2018-05-21T07:30:41.496Z,988.13
2018-05-21T07:31:41.523Z,988.12
2018-05-21T07:32:41.400Z,988.10
2018-05-21T07:33:41.388Z,988.10
2018-05-21T07:34:41.343Z,988.09
2018-05-21T07:35:41.337Z,988.11
2018-05-21T07:36:41.307Z,988.07
2018-05-21T07:37:41.375Z,988.07
2018-05-21T07:38:41.288Z,988.07
2018-05-21T07:39:41.231Z,988.09
2018-05-21T07:40:41.206Z,988.09
2018-05-21T07:41:41.192Z,988.11
2018-05-21T07:42:41.235Z,988.07
2018-05-21T07:43:41.132Z,988.05
2018-05-21T07:44:41.081Z,988.00
2018-05-21T07:45:41.066Z,987.98
2018-05-21T07:46:41.078Z,988.00
2018-05-21T07:47:41.122Z,987.94
2018-05-21T07:48:40.978Z,987.92
2018-05-21T07:49:40.954Z,987.88
2018-05-21T07:50:40.935Z,987.91
2018-05-21T07:51:40.979Z,987.91
2018-05-21T07:52:40.865Z,987.93
2018-05-21T07:53:40.960Z,987.90
2018-05-21T07:54:40.833Z,987.92
2018-05-21T07:55:40.796Z,987.90
2018-05-21T07:56:40.781Z,987.89
2018-05-21T07:57:40.753Z,987.82
2018-05-21T07:58:40.765Z,987.84
2018-05-21T07:59:40.752Z,987.86
2018-05-21T08:00:40.677Z,987.82
2018-05-21T08:01:40.666Z,987.78
2018-05-21T08:02:40.596Z,987.81
2018-05-21T08:03:40.578Z,987.76
2018-05-21T08:04:40.672Z,987.76
2018-05-21T08:05:40.535Z,987.81
2018-05-21T08:06:40.491Z,987.78
2018-05-21T08:07:40.534Z,987.80
2018-05-21T08:08:40.465Z,987.75
2018-05-21T08:09:40.422Z,987.76
2018-05-21T08:10:40.383Z,987.67
2018-05-21T08:11:40.352Z,987.71
2018-05-21T08:12:40.332Z,987.67
2018-05-21T08:13:40.305Z,987.67
2018-05-21T08:14:40.324Z,987.65
2018-05-21T08:15:40.360Z,987.63
2018-05-21T08:16:40.225Z,987.67
2018-05-21T08:17:40.194Z,987.67
2018-05-21T08:18:40.171Z,987.64
2018-05-21T08:19:40.184Z,987.65
2018-05-21T08:20:40.160Z,987.61
2018-05-21T08:21:40.093Z,987.59
2018-05-21T08:22:40.071Z,987.59
2018-05-21T08:23:40.037Z,987.59
2018-05-21T08:24:40.023Z,987.62
2018-05-21T08:25:40.094Z,987.59
2018-05-21T08:26:39.947Z,987.62
2018-05-21T08:27:39.929Z,987.56
2018-05-21T08:28:39.902Z,987.55
2018-05-21T08:29:39.924Z,987.57
2018-05-21T08:30:39.847Z,987.55
2018-05-21T08:31:39.899Z,987.52
2018-05-21T08:32:39.803Z,987.52
2018-05-21T08:33:39.758Z,987.48
2018-05-21T08:34:39.745Z,987.52
2018-05-21T08:35:39.717Z,987.52
2018-05-21T08:36:39.751Z,987.51
2018-05-21T08:37:39.669Z,987.51
2018-05-21T08:38:39.661Z,987.50
2018-05-21T08:39:39.614Z,987.51
2018-05-21T08:40:39.591Z,987.48
2018-05-21T08:41:39.618Z,987.47
2018-05-21T08:42:39.607Z,987.48
2018-05-21T08:43:39.489Z,987.50
2018-05-21T08:44:39.477Z,987.47
2018-05-21T08:45:39.451Z,987.50
2018-05-21T08:46:39.411Z,987.48
2018-05-21T08:47:39.392Z,987.52
2018-05-21T08:48:39.443Z,987.50
2018-05-21T08:49:39.332Z,987.49
2018-05-21T08:50:39.312Z,987.46
2018-05-21T08:51:39.299Z,987.46
2018-05-21T08:52:39.397Z,987.46
2018-05-21T08:53:39.221Z,987.48
2018-05-21T08:54:39.203Z,987.45
2018-05-21T08:55:39.181Z,987.46
2018-05-21T08:56:39.176Z,987.45
2018-05-21T08:57:39.164Z,987.47
2018-05-21T08:58:39.106Z,987.45
2018-05-21T08:59:39.105Z,987.45
2018-05-21T09:00:39.044Z,987.41
2018-05-21T09:01:39.003Z,987.41
2018-05-21T09:02:38.984Z,987.39
2018-05-21T09:03:38.956Z,987.37
2018-05-21T09:04:38.998Z,987.42
2018-05-21T09:05:38.921Z,987.42
2018-05-21T09:06:38.876Z,987.42
2018-05-21T09:07:38.852Z,987.41
2018-05-21T09:08:38.816Z,987.47
2018-05-21T09:09:38.798Z,987.47
2018-05-21T09:10:38.783Z,987.47
2018-05-21T09:11:38.736Z,987.50
2018-05-21T09:12:38.723Z,987.50
2018-05-21T09:13:38.811Z,987.49
2018-05-21T09:14:38.657Z,987.48
2018-05-21T09:15:38.635Z,987.46
2018-05-21T09:16:38.621Z,987.43
2018-05-21T09:17:38.602Z,987.43
2018-05-21T09:18:38.655Z,987.43
2018-05-21T09:19:38.518Z,987.42
2018-05-21T09:20:38.525Z,987.43
2018-05-21T09:21:38.486Z,987.45
2018-05-21T09:22:38.530Z,987.44
2018-05-21T09:23:38.426Z,987.44
2018-05-21T09:24:38.466Z,987.44
2018-05-21T09:25:38.367Z,987.45
2018-05-21T09:26:38.343Z,987.41
2018-05-21T09:27:38.332Z,987.41
2018-05-21T09:28:38.306Z,987.36
2018-05-21T09:29:38.260Z,987.37
2018-05-21T09:30:38.232Z,987.43
2018-05-21T09:31:38.218Z,987.43
2018-05-21T09:32:38.184Z,987.34
2018-05-21T09:33:38.175Z,987.32
2018-05-21T09:34:38.247Z,987.33
2018-05-21T09:35:38.103Z,987.33
2018-05-21T09:36:38.063Z,987.32
2018-05-21T09:37:38.034Z,987.30
2018-05-21T09:38:38.020Z,987.29
2018-05-21T09:39:38.051Z,987.28
2018-05-21T09:40:37.984Z,987.24
2018-05-21T09:41:37.950Z,987.27
2018-05-21T09:42:37.914Z,987.27
2018-05-21T09:43:37.908Z,987.22
2018-05-21T09:44:37.869Z,987.25
2018-05-21T09:45:37.824Z,987.27
2018-05-21T09:46:37.798Z,987.27
2018-05-21T09:47:37.810Z,987.30
2018-05-21T09:48:37.765Z,987.30
2018-05-21T09:49:37.718Z,987.31
2018-05-21T09:50:37.808Z,987.31
2018-05-21T09:51:37.673Z,987.31
2018-05-21T09:52:37.653Z,987.32
2018-05-21T09:53:37.613Z,987.35
2018-05-21T09:54:37.583Z,987.35
2018-05-21T09:55:37.558Z,987.35
2018-05-21T09:56:37.537Z,987.34
2018-05-21T09:57:37.515Z,987.33
2018-05-21T09:58:37.493Z,987.33
2018-05-21T09:59:37.437Z,987.34
2018-05-21T10:00:37.427Z,987.35
2018-05-21T10:01:37.455Z,987.33
2018-05-21T10:02:37.360Z,987.32
2018-05-21T10:03:37.341Z,987.31
2018-05-21T10:04:37.325Z,987.33
2018-05-21T10:05:37.298Z,987.37
2018-05-21T10:06:37.268Z,987.34
2018-05-21T10:07:37.220Z,987.34
2018-05-21T10:08:37.234Z,987.37
2018-05-21T10:09:37.194Z,987.36
2018-05-21T10:10:37.173Z,987.39
2018-05-21T10:11:37.161Z,987.36
2018-05-21T10:12:37.106Z,987.40
2018-05-21T10:13:37.085Z,987.38
2018-05-21T10:14:37.041Z,987.38
2018-05-21T10:15:37.035Z,987.41
2018-05-21T10:16:37.138Z,987.43
2018-05-21T10:17:36.952Z,987.48
2018-05-21T10:18:36.934Z,987.46
2018-05-21T10:19:36.925Z,987.44
2018-05-21T10:20:36.875Z,987.48
2018-05-21T10:21:36.900Z,987.47
2018-05-21T10:22:36.832Z,987.48
2018-05-21T10:23:36.805Z,987.46
2018-05-21T10:24:36.783Z,987.49
2018-05-21T10:25:36.737Z,987.50
2018-05-21T10:26:36.848Z,987.49
2018-05-21T10:27:36.695Z,987.51
2018-05-21T10:28:36.693Z,987.54
2018-05-21T10:29:36.643Z,987.48
2018-05-21T10:30:36.606Z,987.53
2018-05-21T10:31:36.587Z,987.53
2018-05-21T10:32:36.648Z,987.52
2018-05-21T10:33:36.536Z,987.52
2018-05-21T10:34:36.544Z,987.49
2018-05-21T10:35:36.474Z,987.52
2018-05-21T10:36:36.463Z,987.50
2018-05-21T10:37:36.455Z,987.49
2018-05-21T10:38:36.389Z,987.49
2018-05-21T10:39:36.376Z,987.50
2018-05-21T10:40:36.355Z,987.50
2018-05-21T10:41:36.325Z,987.47
2018-05-21T10:42:36.297Z,987.53
2018-05-21T10:43:36.251Z,987.53
2018-05-21T10:44:36.237Z,987.53
2018-05-21T10:45:36.207Z,987.55
2018-05-21T10:46:36.171Z,987.58
2018-05-21T10:47:36.178Z,987.56
2018-05-21T10:48:36.349Z,987.56
2018-05-21T10:49:36.097Z,987.54
2018-05-21T10:50:36.062Z,987.59
2018-05-21T10:51:36.042Z,987.56
2018-05-21T10:52:36.040Z,987.58
2018-05-21T10:53:36.093Z,987.56
2018-05-21T10:54:35.977Z,987.58
2018-05-21T10:55:35.931Z,987.58
2018-05-21T10:56:35.902Z,987.60
2018-05-21T10:57:35.983Z,987.64
2018-05-21T10:58:35.953Z,987.61
2018-05-21T10:59:35.841Z,987.62
2018-05-21T11:00:35.806Z,987.61
2018-05-21T11:01:35.765Z,987.66
2018-05-21T11:02:35.755Z,987.71
2018-05-21T11:03:35.747Z,987.72
2018-05-21T11:04:35.752Z,987.73
2018-05-21T11:05:35.672Z,987.79
2018-05-21T11:06:35.686Z,987.79
2018-05-21T11:07:35.624Z,987.77
2018-05-21T11:08:35.608Z,987.76
2018-05-21T11:09:35.667Z,987.76
2018-05-21T11:10:35.549Z,987.79
2018-05-21T11:11:35.521Z,987.76
2018-05-21T11:12:35.499Z,987.79
2018-05-21T11:13:35.454Z,987.80
2018-05-21T11:14:35.484Z,987.82
2018-05-21T11:15:35.406Z,987.85
2018-05-21T11:16:35.373Z,987.89
2018-05-21T11:17:35.338Z,987.89
2018-05-21T11:18:35.340Z,987.90
2018-05-21T11:19:35.304Z,987.91
2018-05-21T11:20:35.367Z,987.98
2018-05-21T11:21:35.239Z,987.99
2018-05-21T11:22:35.221Z,987.98
2018-05-21T11:23:35.190Z,987.98
2018-05-21T11:24:35.175Z,987.98
2018-05-21T11:25:35.176Z,987.99
2018-05-21T11:26:35.170Z,987.97
2018-05-21T11:27:35.072Z,988.03
2018-05-21T11:28:35.056Z,987.97
2018-05-21T11:29:35.045Z,987.96
2018-05-21T11:30:35.082Z,987.95
2018-05-21T11:31:34.961Z,987.99
2018-05-21T11:32:34.948Z,988.02
2018-05-21T11:33:34.955Z,988.06
2018-05-21T11:34:34.887Z,988.07
2018-05-21T11:35:34.961Z,988.10
2018-05-21T11:36:34.846Z,988.13
2018-05-21T11:37:34.793Z,988.13
2018-05-21T11:38:34.786Z,988.17
2018-05-21T11:39:34.744Z,988.21
2018-05-21T11:40:34.741Z,988.18
2018-05-21T11:41:34.743Z,988.17
2018-05-21T11:42:34.715Z,988.21
2018-05-21T11:43:34.665Z,988.26
2018-05-21T11:44:34.637Z,988.26
2018-05-21T11:45:34.621Z,988.23
2018-05-21T11:46:34.943Z,988.26
2018-05-21T11:47:34.781Z,988.24
2018-05-21T11:48:34.522Z,988.27
2018-05-21T11:49:34.489Z,988.30
2018-05-21T11:50:34.516Z,988.33
2018-05-21T11:51:34.466Z,988.37
2018-05-21T11:52:34.456Z,988.37
2018-05-21T11:53:34.411Z,988.40
2018-05-21T11:54:34.327Z,988.40
2018-05-21T11:55:36.580Z,988.41
2018-05-21T11:56:36.512Z,988.42
2018-05-21T11:57:34.317Z,988.43
2018-05-21T11:58:34.239Z,988.46
2018-05-21T11:59:34.294Z,988.45
2018-05-21T12:02:35.201Z,988.45
2018-05-21T12:03:34.267Z,988.51
2018-05-21T12:04:34.742Z,988.49
2018-05-21T12:05:34.119Z,988.52
2018-05-21T12:06:34.010Z,988.53
2018-05-21T12:07:34.385Z,988.55
2018-05-21T12:08:34.018Z,988.53
2018-05-21T12:09:33.964Z,988.56
2018-05-21T12:10:33.933Z,988.54
2018-05-21T12:11:33.918Z,988.58
2018-05-21T12:12:34.012Z,988.58
2018-05-21T12:13:33.846Z,988.60
2018-05-21T12:14:33.827Z,988.64
2018-05-21T12:15:33.865Z,988.66
2018-05-21T12:16:33.811Z,988.67
2018-05-21T12:17:33.852Z,988.69
2018-05-21T12:18:33.733Z,988.71
2018-05-21T12:19:33.699Z,988.69
2018-05-21T12:20:33.690Z,988.74
2018-05-21T12:21:33.614Z,988.75
2018-05-21T12:22:33.692Z,988.79
2018-05-21T12:23:33.590Z,988.80
2018-05-21T12:24:33.540Z,988.81
2018-05-21T12:25:33.529Z,988.85
2018-05-21T12:26:33.491Z,988.88
2018-05-21T12:27:33.482Z,988.88
2018-05-21T12:28:33.540Z,988.88
2018-05-21T12:29:33.412Z,988.91
2018-05-21T12:30:33.387Z,988.90